createdAt,value
2016-06-14T00:00:47.490Z,0
2016-06-14T00:01:47.526Z,0
2016-06-14T00:02:47.576Z,0
2016-06-14T00:03:47.624Z,0
2016-06-14T00:04:47.675Z,0
2016-06-14T00:05:47.709Z,0
2016-06-14T00:06:47.634Z,0
2016-06-14T00:07:47.809Z,0
2016-06-14T00:08:47.844Z,0
2016-06-14T00:09:47.925Z,0
2016-06-14T00:10:47.943Z,0
2016-06-14T00:11:47.993Z,0
2016-06-14T00:12:48.060Z,0
2016-06-14T00:13:48.093Z,0
2016-06-14T00:14:48.393Z,0
2016-06-14T00:15:48.194Z,0
2016-06-14T00:16:48.227Z,0
2016-06-14T00:17:48.262Z,0
2016-06-14T00:18:48.343Z,0
2016-06-14T00:19:48.393Z,0
2016-06-14T00:20:48.412Z,0
2016-06-14T00:21:48.477Z,0
2016-06-14T00:22:48.512Z,0
2016-06-14T00:23:48.546Z,0
2016-06-14T00:24:48.643Z,0
2016-06-14T00:25:48.661Z,0
2016-06-14T00:26:48.695Z,0
2016-06-14T00:27:48.605Z,0
2016-06-14T00:28:48.639Z,0
2016-06-14T00:29:49.190Z,0
2016-06-14T00:30:48.911Z,0
2016-06-14T00:31:48.929Z,0
2016-06-14T00:32:48.980Z,0
2016-06-14T00:33:49.030Z,0
2016-06-14T00:34:49.063Z,0
2016-06-14T00:35:49.130Z,0
2016-06-14T00:36:49.195Z,0
2016-06-14T00:37:49.198Z,0
2016-06-14T00:38:49.248Z,0
2016-06-14T00:39:49.314Z,0
2016-06-14T00:40:49.349Z,0
2016-06-14T00:41:49.398Z,0
2016-06-14T00:42:49.448Z,0
2016-06-14T00:43:49.342Z,0
2016-06-14T00:44:49.408Z,0
2016-06-14T00:45:49.457Z,0
2016-06-14T00:46:49.461Z,0
2016-06-14T00:47:49.541Z,0
2016-06-14T00:48:49.732Z,0
2016-06-14T00:49:49.626Z,0
2016-06-14T00:50:49.848Z,0
2016-06-14T00:51:49.851Z,0
2016-06-14T00:52:49.916Z,0
2016-06-14T00:53:49.966Z,0
2016-06-14T00:54:50.032Z,0
2016-06-14T00:55:50.050Z,0
2016-06-14T00:56:50.163Z,0
2016-06-14T00:57:50.166Z,0
2016-06-14T00:58:50.059Z,0
2016-06-14T00:59:51.438Z,0
2016-06-14T01:00:50.285Z,0
2016-06-14T01:01:50.350Z,0
2016-06-14T01:02:50.369Z,0
2016-06-14T01:03:50.419Z,0
2016-06-14T01:04:50.500Z,0
2016-06-14T01:05:50.520Z,0
2016-06-14T01:06:50.568Z,0
2016-06-14T01:07:50.635Z,0
2016-06-14T01:08:50.684Z,0
2016-06-14T01:09:50.702Z,0
2016-06-14T01:10:50.613Z,0
2016-06-14T01:11:50.803Z,0
2016-06-14T01:12:50.868Z,0
2016-06-14T01:13:50.887Z,0
2016-06-14T01:14:50.828Z,0
2016-06-14T01:15:51.003Z,0
2016-06-14T01:16:51.052Z,0
2016-06-14T01:17:51.087Z,0
2016-06-14T01:18:51.153Z,0
2016-06-14T01:19:51.202Z,0
2016-06-14T01:20:51.221Z,0
2016-06-14T01:21:51.286Z,0
2016-06-14T01:22:51.353Z,0
2016-06-14T01:23:51.370Z,0
2016-06-14T01:24:51.420Z,0
2016-06-14T01:25:51.471Z,0
2016-06-14T01:26:51.505Z,0
2016-06-14T01:27:51.430Z,0
2016-06-14T01:28:51.449Z,0
2016-06-14T01:29:51.593Z,0
2016-06-14T01:30:51.705Z,0
2016-06-14T01:31:51.770Z,0
2016-06-14T01:32:51.805Z,0
2016-06-14T01:33:51.855Z,0
2016-06-14T01:34:51.889Z,0
2016-06-14T01:35:51.923Z,0
2016-06-14T01:36:52.005Z,0
2016-06-14T01:37:52.038Z,0
2016-06-14T01:38:52.088Z,0
2016-06-14T01:39:52.108Z,0
2016-06-14T01:40:52.173Z,0
2016-06-14T01:41:52.238Z,0
2016-06-14T01:42:52.289Z,0
2016-06-14T01:43:52.307Z,0
2016-06-14T01:44:53.092Z,0
2016-06-14T01:45:52.407Z,0
2016-06-14T01:46:52.441Z,0
2016-06-14T01:47:52.508Z,0
2016-06-14T01:48:52.416Z,0
2016-06-14T01:49:52.591Z,0
2016-06-14T01:50:52.641Z,0
2016-06-14T01:51:52.551Z,0
2016-06-14T01:52:52.741Z,0
2016-06-14T01:53:52.776Z,0
2016-06-14T01:54:52.840Z,0
2016-06-14T01:55:52.907Z,0
2016-06-14T01:56:52.832Z,0
2016-06-14T01:57:52.960Z,0
2016-06-14T01:58:53.025Z,0
2016-06-14T01:59:53.450Z,0
2016-06-14T02:00:53.094Z,0
2016-06-14T02:01:53.175Z,0
2016-06-14T02:02:53.240Z,0
2016-06-14T02:03:53.259Z,0
2016-06-14T02:04:53.310Z,0
2016-06-14T02:05:53.343Z,0
2016-06-14T02:06:53.097Z,0
2016-06-14T02:07:53.428Z,0
2016-06-14T02:08:53.494Z,0
2016-06-14T02:09:53.559Z,0
2016-06-14T02:10:53.437Z,0
2016-06-14T02:11:53.503Z,0
2016-06-14T02:12:53.693Z,0
2016-06-14T02:13:53.728Z,0
2016-06-14T02:14:53.638Z,0
2016-06-14T02:15:53.827Z,0
2016-06-14T02:16:53.877Z,0
2016-06-14T02:17:53.911Z,0
2016-06-14T02:18:53.962Z,0
2016-06-14T02:19:53.886Z,0
2016-06-14T02:20:54.061Z,0
2016-06-14T02:21:54.112Z,0
2016-06-14T02:22:54.145Z,0
2016-06-14T02:23:54.196Z,0
2016-06-14T02:24:54.246Z,0
2016-06-14T02:25:54.296Z,0
2016-06-14T02:26:54.205Z,0
2016-06-14T02:27:54.380Z,0
2016-06-14T02:28:54.430Z,0
2016-06-14T02:29:54.480Z,0
2016-06-14T02:30:54.389Z,0
2016-06-14T02:31:54.564Z,0
2016-06-14T02:32:54.457Z,0
2016-06-14T02:33:54.664Z,0
2016-06-14T02:34:54.714Z,0
2016-06-14T02:35:54.749Z,0
2016-06-14T02:36:54.813Z,0
2016-06-14T02:37:54.848Z,0
2016-06-14T02:38:54.726Z,0
2016-06-14T02:39:54.933Z,0
2016-06-14T02:40:54.998Z,0
2016-06-14T02:41:55.017Z,0
2016-06-14T02:42:55.099Z,0
2016-06-14T02:43:55.132Z,0
2016-06-14T02:44:55.620Z,0
2016-06-14T02:45:55.248Z,0
2016-06-14T02:46:55.125Z,0
2016-06-14T02:47:55.317Z,0
2016-06-14T02:48:55.382Z,0
2016-06-14T02:49:55.417Z,0
2016-06-14T02:50:55.451Z,0
2016-06-14T02:51:55.516Z,0
2016-06-14T02:52:55.582Z,0
2016-06-14T02:53:55.554Z,0
2016-06-14T02:54:55.229Z,0
2016-06-14T02:55:55.435Z,0
2016-06-14T02:56:55.845Z,0
2016-06-14T02:57:55.534Z,0
2016-06-14T02:58:55.928Z,0
2016-06-14T02:59:56.729Z,0
2016-06-14T03:00:57.153Z,0
2016-06-14T03:01:55.829Z,0
2016-06-14T03:02:56.004Z,0
2016-06-14T03:03:56.194Z,0
2016-06-14T03:04:55.838Z,0
2016-06-14T03:05:56.184Z,0
2016-06-14T03:06:56.203Z,0
2016-06-14T03:07:56.254Z,0
2016-06-14T03:08:56.303Z,0
2016-06-14T03:09:56.384Z,0
2016-06-14T03:10:56.387Z,0
2016-06-14T03:11:56.281Z,0
2016-06-14T03:12:56.519Z,0
2016-06-14T03:13:56.553Z,0
2016-06-14T03:14:56.602Z,0
2016-06-14T03:15:56.511Z,0
2016-06-14T03:16:56.547Z,0
2016-06-14T03:17:56.706Z,5
2016-06-14T03:18:56.646Z,5
2016-06-14T03:19:56.806Z,5
2016-06-14T03:20:56.746Z,5
2016-06-14T03:21:56.905Z,5
2016-06-14T03:22:56.955Z,5
2016-06-14T03:23:57.021Z,5
2016-06-14T03:24:57.103Z,5
2016-06-14T03:25:57.089Z,5
2016-06-14T03:26:57.186Z,5
2016-06-14T03:27:56.893Z,5
2016-06-14T03:28:57.271Z,5
2016-06-14T03:29:57.711Z,5
2016-06-14T03:30:57.543Z,5
2016-06-14T03:31:57.388Z,5
2016-06-14T03:32:57.314Z,5
2016-06-14T03:33:57.474Z,5
2016-06-14T03:34:57.523Z,5
2016-06-14T03:35:57.605Z,5
2016-06-14T03:36:57.608Z,5
2016-06-14T03:37:57.673Z,5
2016-06-14T03:38:57.740Z,5
2016-06-14T03:39:57.602Z,5
2016-06-14T03:40:57.808Z,5
2016-06-14T03:41:57.888Z,5
2016-06-14T03:42:57.922Z,10
2016-06-14T03:43:57.926Z,10
2016-06-14T03:44:57.914Z,10
2016-06-14T03:45:57.917Z,10
2016-06-14T03:46:58.076Z,15
2016-06-14T03:47:58.173Z,15
2016-06-14T03:48:58.207Z,10
2016-06-14T03:49:58.241Z,15
2016-06-14T03:50:58.291Z,15
2016-06-14T03:51:58.357Z,15
2016-06-14T03:52:58.360Z,15
2016-06-14T03:53:58.456Z,20
2016-06-14T03:54:58.507Z,20
2016-06-14T03:55:58.495Z,20
2016-06-14T03:56:58.606Z,25
2016-06-14T03:57:58.626Z,25
2016-06-14T03:58:58.504Z,30
2016-06-14T03:59:58.741Z,30
2016-06-14T04:00:58.916Z,30
2016-06-14T04:01:58.810Z,35
2016-06-14T04:02:58.734Z,35
2016-06-14T04:03:58.878Z,35
2016-06-14T04:04:58.929Z,35
2016-06-14T04:05:59.009Z,45
2016-06-14T04:06:59.043Z,50
2016-06-14T04:07:59.046Z,55
2016-06-14T04:08:59.160Z,50
2016-06-14T04:09:59.194Z,45
2016-06-14T04:10:59.243Z,50
2016-06-14T04:11:59.247Z,50
2016-06-14T04:12:59.297Z,50
2016-06-14T04:13:59.378Z,45
2016-06-14T04:14:59.990Z,50
2016-06-14T04:15:59.353Z,50
2016-06-14T04:16:59.527Z,45
2016-06-14T04:17:59.562Z,40
2016-06-14T04:18:59.580Z,30
2016-06-14T04:19:59.662Z,25
2016-06-14T04:20:59.728Z,25
2016-06-14T04:21:59.714Z,25
2016-06-14T04:22:59.781Z,20
2016-06-14T04:23:59.830Z,20
2016-06-14T04:24:59.756Z,20
2016-06-14T04:25:59.946Z,20
2016-06-14T04:26:59.808Z,20
2016-06-14T04:28:00.046Z,20
2016-06-14T04:29:00.081Z,20
2016-06-14T04:30:00.474Z,20
2016-06-14T04:31:00.930Z,20
2016-06-14T04:32:00.074Z,20
2016-06-14T04:33:00.234Z,20
2016-06-14T04:34:00.314Z,25
2016-06-14T04:35:00.380Z,25
2016-06-14T04:36:00.383Z,25
2016-06-14T04:37:00.448Z,25
2016-06-14T04:38:00.482Z,20
2016-06-14T04:39:00.549Z,20
2016-06-14T04:40:00.614Z,20
2016-06-14T04:41:00.601Z,20
2016-06-14T04:42:00.683Z,20
2016-06-14T04:43:00.748Z,20
2016-06-14T04:44:00.782Z,15
2016-06-14T04:45:00.660Z,15
2016-06-14T04:46:01.491Z,15
2016-06-14T04:47:00.901Z,10
2016-06-14T04:48:00.952Z,10
2016-06-14T04:49:01.033Z,10
2016-06-14T04:50:01.050Z,10
2016-06-14T04:51:01.132Z,10
2016-06-14T04:52:01.151Z,10
2016-06-14T04:53:01.185Z,15
2016-06-14T04:54:01.266Z,15
2016-06-14T04:55:01.301Z,20
2016-06-14T04:56:01.319Z,25
2016-06-14T04:57:01.447Z,30
2016-06-14T04:58:01.436Z,35
2016-06-14T04:59:01.313Z,40
2016-06-14T05:00:02.097Z,40
2016-06-14T05:01:01.741Z,40
2016-06-14T05:02:01.604Z,40
2016-06-14T05:03:01.544Z,35
2016-06-14T05:04:01.688Z,35
2016-06-14T05:05:01.785Z,35
2016-06-14T05:06:01.835Z,35
2016-06-14T05:07:01.666Z,40
2016-06-14T05:08:01.763Z,45
2016-06-14T05:09:01.969Z,40
2016-06-14T05:10:01.972Z,40
2016-06-14T05:11:02.037Z,40
2016-06-14T05:12:02.119Z,40
2016-06-14T05:13:02.107Z,45
2016-06-14T05:14:02.188Z,45
2016-06-14T05:15:02.081Z,50
2016-06-14T05:16:03.069Z,50
2016-06-14T05:17:02.337Z,55
2016-06-14T05:18:02.356Z,60
2016-06-14T05:19:02.422Z,65
2016-06-14T05:20:02.487Z,65
2016-06-14T05:21:02.474Z,65
2016-06-14T05:22:02.556Z,60
2016-06-14T05:23:02.637Z,60
2016-06-14T05:24:02.608Z,65
2016-06-14T05:25:02.675Z,70
2016-06-14T05:26:02.631Z,80
2016-06-14T05:27:02.775Z,80
2016-06-14T05:28:02.824Z,85
2016-06-14T05:29:02.890Z,85
2016-06-14T05:30:02.940Z,85
2016-06-14T05:31:03.599Z,95
2016-06-14T05:32:03.070Z,115
2016-06-14T05:33:03.090Z,120
2016-06-14T05:34:03.093Z,130
2016-06-14T05:35:03.142Z,135
2016-06-14T05:36:03.239Z,140
2016-06-14T05:37:03.243Z,135
2016-06-14T05:38:03.292Z,135
2016-06-14T05:39:03.421Z,125
2016-06-14T05:40:03.392Z,120
2016-06-14T05:41:03.457Z,125
2016-06-14T05:42:03.461Z,135
2016-06-14T05:43:03.542Z,145
2016-06-14T05:44:03.608Z,145
2016-06-14T05:45:03.595Z,155
2016-06-14T05:46:05.317Z,165
2016-06-14T05:47:03.758Z,185
2016-06-14T05:48:03.745Z,200
2016-06-14T05:49:03.795Z,200
2016-06-14T05:50:03.893Z,190
2016-06-14T05:51:03.738Z,190
2016-06-14T05:52:03.945Z,190
2016-06-14T05:53:04.027Z,195
2016-06-14T05:54:04.061Z,190
2016-06-14T05:55:04.110Z,200
2016-06-14T05:56:04.129Z,190
2016-06-14T05:57:04.070Z,205
2016-06-14T05:58:04.292Z,210
2016-06-14T05:59:04.279Z,230
2016-06-14T06:00:04.344Z,235
2016-06-14T06:01:04.551Z,235
2016-06-14T06:02:04.429Z,215
2016-06-14T06:03:04.463Z,225
2016-06-14T06:04:04.545Z,220
2016-06-14T06:05:04.579Z,245
2016-06-14T06:06:04.628Z,260
2016-06-14T06:07:04.663Z,255
2016-06-14T06:08:04.698Z,255
2016-06-14T06:09:04.763Z,250
2016-06-14T06:10:04.844Z,260
2016-06-14T06:11:04.832Z,275
2016-06-14T06:12:04.897Z,280
2016-06-14T06:13:04.963Z,300
2016-06-14T06:14:04.966Z,280
2016-06-14T06:15:05.047Z,265
2016-06-14T06:16:04.987Z,245
2016-06-14T06:17:05.132Z,250
2016-06-14T06:18:05.165Z,250
2016-06-14T06:19:05.232Z,250
2016-06-14T06:20:05.296Z,240
2016-06-14T06:21:05.330Z,230
2016-06-14T06:22:05.366Z,235
2016-06-14T06:23:05.431Z,225
2016-06-14T06:24:05.497Z,230
2016-06-14T06:25:05.500Z,220
2016-06-14T06:26:05.581Z,200
2016-06-14T06:27:05.631Z,195
2016-06-14T06:28:05.634Z,205
2016-06-14T06:29:05.700Z,245
2016-06-14T06:30:05.608Z,245
2016-06-14T06:31:05.659Z,235
2016-06-14T06:32:05.865Z,225
2016-06-14T06:33:05.900Z,220
2016-06-14T06:34:05.934Z,215
2016-06-14T06:35:06.015Z,205
2016-06-14T06:36:06.018Z,185
2016-06-14T06:37:06.068Z,165
2016-06-14T06:38:06.149Z,150
2016-06-14T06:39:06.183Z,140
2016-06-14T06:40:06.202Z,145
2016-06-14T06:41:06.314Z,150
2016-06-14T06:42:06.333Z,155
2016-06-14T06:43:06.196Z,150
2016-06-14T06:44:06.433Z,150
2016-06-14T06:45:06.451Z,185
2016-06-14T06:46:06.277Z,210
2016-06-14T06:47:06.633Z,215
2016-06-14T06:48:06.706Z,210
2016-06-14T06:49:06.810Z,205
2016-06-14T06:50:06.916Z,195
2016-06-14T06:51:06.942Z,175
2016-06-14T06:52:07.052Z,165
2016-06-14T06:53:06.945Z,165
2016-06-14T06:54:06.977Z,165
2016-06-14T06:55:07.057Z,150
2016-06-14T06:56:07.272Z,150
2016-06-14T06:57:07.358Z,145
2016-06-14T06:58:07.365Z,140
2016-06-14T06:59:07.249Z,130
2016-06-14T07:00:07.476Z,135
2016-06-14T07:01:07.950Z,130
2016-06-14T07:02:07.565Z,130
2016-06-14T07:03:07.632Z,140
2016-06-14T07:04:07.683Z,150
2016-06-14T07:05:07.549Z,170
2016-06-14T07:06:07.755Z,190
2016-06-14T07:07:07.837Z,195
2016-06-14T07:08:07.841Z,215
2016-06-14T07:09:07.751Z,235
2016-06-14T07:10:07.956Z,280
2016-06-14T07:11:08.007Z,295
2016-06-14T07:12:08.027Z,295
2016-06-14T07:13:08.123Z,300
2016-06-14T07:14:08.033Z,310
2016-06-14T07:15:08.177Z,305
2016-06-14T07:16:08.712Z,295
2016-06-14T07:17:08.324Z,290
2016-06-14T07:18:08.296Z,275
2016-06-14T07:19:08.392Z,270
2016-06-14T07:20:08.459Z,260
2016-06-14T07:21:08.461Z,255
2016-06-14T07:22:08.496Z,250
2016-06-14T07:23:08.577Z,240
2016-06-14T07:24:08.471Z,235
2016-06-14T07:25:08.677Z,230
2016-06-14T07:26:08.524Z,230
2016-06-14T07:27:08.621Z,235
2016-06-14T07:28:08.670Z,240
2016-06-14T07:29:08.830Z,235
2016-06-14T07:30:08.895Z,245
2016-06-14T07:31:09.383Z,255
2016-06-14T07:32:08.979Z,255
2016-06-14T07:33:09.030Z,260
2016-06-14T07:34:09.096Z,260
2016-06-14T07:35:09.160Z,260
2016-06-14T07:36:09.211Z,250
2016-06-14T07:37:09.214Z,245
2016-06-14T07:38:09.294Z,235
2016-06-14T07:39:09.344Z,230
2016-06-14T07:40:09.379Z,225
2016-06-14T07:41:09.414Z,205
2016-06-14T07:42:09.354Z,215
2016-06-14T07:43:09.513Z,220
2016-06-14T07:44:09.548Z,240
2016-06-14T07:45:09.644Z,220
2016-06-14T07:46:09.695Z,195
2016-06-14T07:47:10.119Z,190
2016-06-14T07:48:09.622Z,200
2016-06-14T07:49:09.798Z,180
2016-06-14T07:50:09.863Z,165
2016-06-14T07:51:09.897Z,185
2016-06-14T07:52:09.760Z,230
2016-06-14T07:53:10.013Z,300
2016-06-14T07:54:09.891Z,330
2016-06-14T07:55:09.910Z,375
2016-06-14T07:56:10.178Z,390
2016-06-14T07:57:10.259Z,410
2016-06-14T07:58:10.201Z,415
2016-06-14T07:59:10.265Z,420
2016-06-14T08:00:10.362Z,405
2016-06-14T08:01:11.069Z,405
2016-06-14T08:02:10.415Z,380
2016-06-14T08:03:10.482Z,340
2016-06-14T08:04:10.500Z,285
2016-06-14T08:05:10.566Z,285
2016-06-14T08:06:10.631Z,235
2016-06-14T08:07:10.649Z,195
2016-06-14T08:08:10.700Z,200
2016-06-14T08:09:10.781Z,190
2016-06-14T08:10:10.815Z,165
2016-06-14T08:11:10.834Z,140
2016-06-14T08:12:10.916Z,120
2016-06-14T08:13:10.949Z,110
2016-06-14T08:14:10.858Z,125
2016-06-14T08:15:11.049Z,130
2016-06-14T08:16:11.959Z,130
2016-06-14T08:17:11.149Z,140
2016-06-14T08:18:11.042Z,155
2016-06-14T08:19:11.234Z,185
2016-06-14T08:20:11.284Z,200
2016-06-14T08:21:11.208Z,230
2016-06-14T08:22:11.368Z,275
2016-06-14T08:23:11.402Z,290
2016-06-14T08:24:11.483Z,285
2016-06-14T08:25:11.534Z,305
2016-06-14T08:26:11.552Z,280
2016-06-14T08:27:11.617Z,255
2016-06-14T08:28:11.667Z,245
2016-06-14T08:29:11.733Z,220
2016-06-14T08:30:11.736Z,230
2016-06-14T08:31:12.207Z,225
2016-06-14T08:32:11.899Z,235
2016-06-14T08:33:11.886Z,210
2016-06-14T08:34:11.919Z,190
2016-06-14T08:35:12.017Z,160
2016-06-14T08:36:12.036Z,135
2016-06-14T08:37:12.086Z,125
2016-06-14T08:38:12.135Z,140
2016-06-14T08:39:12.201Z,155
2016-06-14T08:40:12.266Z,140
2016-06-14T08:41:12.254Z,160
2016-06-14T08:42:12.336Z,230
2016-06-14T08:43:12.401Z,325
2016-06-14T08:44:12.419Z,345
2016-06-14T08:45:12.454Z,415
2016-06-14T08:46:13.472Z,425
2016-06-14T08:47:12.492Z,465
2016-06-14T08:48:12.588Z,465
2016-06-14T08:49:12.529Z,475
2016-06-14T08:50:12.719Z,465
2016-06-14T08:51:12.739Z,465
2016-06-14T08:52:12.803Z,485
2016-06-14T08:53:12.931Z,485
2016-06-14T08:54:12.716Z,490
2016-06-14T08:55:12.938Z,475
2016-06-14T08:56:12.894Z,460
2016-06-14T08:57:13.069Z,465
2016-06-14T08:58:13.088Z,455
2016-06-14T08:59:13.168Z,470
2016-06-14T09:00:13.219Z,480
2016-06-14T09:01:13.800Z,490
2016-06-14T09:02:13.334Z,490
2016-06-14T09:03:13.337Z,520
2016-06-14T09:04:13.372Z,535
2016-06-14T09:05:13.437Z,520
2016-06-14T09:06:13.503Z,440
2016-06-14T09:07:13.553Z,370
2016-06-14T09:08:13.400Z,315
2016-06-14T09:09:13.606Z,255
2016-06-14T09:10:13.718Z,245
2016-06-14T09:11:13.721Z,240
2016-06-14T09:12:13.739Z,210
2016-06-14T09:13:13.853Z,225
2016-06-14T09:14:13.871Z,285
2016-06-14T09:15:13.890Z,350
2016-06-14T09:16:14.877Z,350
2016-06-14T09:17:13.896Z,335
2016-06-14T09:18:14.071Z,375
2016-06-14T09:19:14.105Z,465
2016-06-14T09:20:14.155Z,455
2016-06-14T09:21:14.253Z,465
2016-06-14T09:22:14.255Z,520
2016-06-14T09:23:14.134Z,530
2016-06-14T09:24:14.387Z,535
2016-06-14T09:25:14.437Z,535
2016-06-14T09:26:14.440Z,435
2016-06-14T09:27:14.536Z,340
2016-06-14T09:28:14.586Z,345
2016-06-14T09:29:14.574Z,300
2016-06-14T09:30:14.655Z,300
2016-06-14T09:31:15.314Z,400
2016-06-14T09:32:15.161Z,465
2016-06-14T09:33:14.820Z,475
2016-06-14T09:34:14.840Z,455
2016-06-14T09:35:14.904Z,470
2016-06-14T09:36:14.970Z,495
2016-06-14T09:37:14.974Z,450
2016-06-14T09:38:15.024Z,410
2016-06-14T09:39:15.136Z,375
2016-06-14T09:40:15.123Z,365
2016-06-14T09:41:15.172Z,380
2016-06-14T09:42:15.270Z,395
2016-06-14T09:43:15.304Z,420
2016-06-14T09:44:15.182Z,425
2016-06-14T09:45:15.374Z,455
2016-06-14T09:46:15.173Z,425
2016-06-14T09:47:15.427Z,465
2016-06-14T09:48:15.522Z,520
2016-06-14T09:49:15.416Z,450
2016-06-14T09:50:15.670Z,430
2016-06-14T09:51:15.672Z,470
2016-06-14T09:52:15.707Z,495
2016-06-14T09:53:15.803Z,470
2016-06-14T09:54:15.838Z,470
2016-06-14T09:55:15.857Z,540
2016-06-14T09:56:15.938Z,565
2016-06-14T09:57:16.019Z,550
2016-06-14T09:58:15.881Z,490
2016-06-14T09:59:16.072Z,440
2016-06-14T10:00:16.091Z,425
2016-06-14T10:01:16.953Z,395
2016-06-14T10:02:16.504Z,380
2016-06-14T10:03:16.241Z,315
2016-06-14T10:04:16.321Z,275
2016-06-14T10:05:16.403Z,270
2016-06-14T10:06:16.391Z,260
2016-06-14T10:07:16.456Z,255
2016-06-14T10:08:16.397Z,250
2016-06-14T10:09:16.540Z,275
2016-06-14T10:10:16.622Z,275
2016-06-14T10:11:16.640Z,265
2016-06-14T10:12:16.737Z,250
2016-06-14T10:13:16.787Z,275
2016-06-14T10:14:16.774Z,320
2016-06-14T10:15:16.871Z,335
2016-06-14T10:16:17.546Z,305
2016-06-14T10:17:16.955Z,235
2016-06-14T10:18:17.006Z,205
2016-06-14T10:19:17.087Z,195
2016-06-14T10:20:17.105Z,195
2016-06-14T10:21:17.140Z,195
2016-06-14T10:22:17.065Z,170
2016-06-14T10:23:17.255Z,135
2016-06-14T10:24:17.321Z,120
2016-06-14T10:25:17.324Z,115
2016-06-14T10:26:17.249Z,120
2016-06-14T10:27:17.330Z,125
2016-06-14T10:28:17.459Z,135
2016-06-14T10:29:17.523Z,135
2016-06-14T10:30:17.604Z,145
2016-06-14T10:31:17.732Z,160
2016-06-14T10:32:17.970Z,195
2016-06-14T10:33:17.771Z,235
2016-06-14T10:34:17.774Z,275
2016-06-14T10:35:17.666Z,310
2016-06-14T10:36:17.889Z,355
2016-06-14T10:37:17.923Z,405
2016-06-14T10:38:17.973Z,485
2016-06-14T10:39:18.007Z,565
2016-06-14T10:40:18.090Z,620
2016-06-14T10:41:18.092Z,610
2016-06-14T10:42:18.173Z,640
2016-06-14T10:43:18.129Z,705
2016-06-14T10:44:18.258Z,790
2016-06-14T10:45:18.292Z,790
2016-06-14T10:46:19.013Z,805
2016-06-14T10:47:19.111Z,775
2016-06-14T10:48:18.456Z,675
2016-06-14T10:49:18.491Z,600
2016-06-14T10:50:18.573Z,595
2016-06-14T10:51:18.638Z,670
2016-06-14T10:52:18.641Z,725
2016-06-14T10:53:18.691Z,640
2016-06-14T10:54:18.773Z,605
2016-06-14T10:55:18.806Z,555
2016-06-14T10:56:18.684Z,480
2016-06-14T10:57:18.985Z,590
2016-06-14T10:58:18.940Z,640
2016-06-14T10:59:18.990Z,735
2016-06-14T11:00:18.931Z,770
2016-06-14T11:01:19.685Z,755
2016-06-14T11:02:19.703Z,810
2016-06-14T11:03:19.222Z,825
2016-06-14T11:04:19.241Z,750
2016-06-14T11:05:19.353Z,830
2016-06-14T11:06:19.372Z,820
2016-06-14T11:07:19.390Z,775
2016-06-14T11:08:19.487Z,750
2016-06-14T11:09:19.521Z,570
2016-06-14T11:10:19.540Z,505
2016-06-14T11:11:19.621Z,460
2016-06-14T11:12:19.702Z,405
2016-06-14T11:13:19.549Z,355
2016-06-14T11:14:19.786Z,350
2016-06-14T11:15:19.822Z,325
2016-06-14T11:16:20.590Z,325
2016-06-14T11:17:20.155Z,305
2016-06-14T11:18:19.956Z,355
2016-06-14T11:19:20.021Z,460
2016-06-14T11:20:20.087Z,645
2016-06-14T11:21:20.091Z,795
2016-06-14T11:22:20.139Z,900
2016-06-14T11:23:20.253Z,895
2016-06-14T11:24:20.256Z,900
2016-06-14T11:25:20.305Z,850
2016-06-14T11:26:20.387Z,800
2016-06-14T11:27:20.405Z,585
2016-06-14T11:28:20.501Z,465
2016-06-14T11:29:20.505Z,320
2016-06-14T11:30:20.586Z,315
2016-06-14T11:31:20.855Z,365
2016-06-14T11:32:21.045Z,410
2016-06-14T11:33:20.720Z,435
2016-06-14T11:34:20.801Z,455
2016-06-14T11:35:20.820Z,410
2016-06-14T11:36:20.854Z,400
2016-06-14T11:37:20.780Z,425
2016-06-14T11:38:20.986Z,480
2016-06-14T11:39:21.036Z,565
2016-06-14T11:40:21.070Z,645
2016-06-14T11:41:21.119Z,705
2016-06-14T11:42:21.186Z,715
2016-06-14T11:43:21.220Z,705
2016-06-14T11:44:21.301Z,680
2016-06-14T11:45:21.367Z,680
2016-06-14T11:46:24.088Z,690
2016-06-14T11:47:24.248Z,655
2016-06-14T11:48:22.204Z,630
2016-06-14T11:49:23.379Z,635
2016-06-14T11:50:21.570Z,635
2016-06-14T11:51:21.651Z,695
2016-06-14T11:52:21.514Z,705
2016-06-14T11:53:21.767Z,640
2016-06-14T11:54:21.784Z,665
2016-06-14T11:55:21.820Z,655
2016-06-14T11:56:21.916Z,600
2016-06-14T11:57:22.012Z,560
2016-06-14T11:58:21.985Z,510
2016-06-14T11:59:22.050Z,470
2016-06-14T12:00:22.100Z,465
2016-06-14T12:01:22.150Z,480
2016-06-14T12:02:22.731Z,535
2016-06-14T12:03:22.282Z,590
2016-06-14T12:04:22.301Z,620
2016-06-14T12:05:22.366Z,700
2016-06-14T12:06:22.384Z,670
2016-06-14T12:07:22.449Z,665
2016-06-14T12:08:22.531Z,675
2016-06-14T12:09:22.534Z,590
2016-06-14T12:10:22.584Z,595
2016-06-14T12:11:22.681Z,620
2016-06-14T12:12:22.700Z,590
2016-06-14T12:13:22.765Z,625
2016-06-14T12:14:22.909Z,635
2016-06-14T12:15:22.866Z,495
2016-06-14T12:16:23.290Z,395
2016-06-14T12:17:23.200Z,325
2016-06-14T12:18:23.015Z,310
2016-06-14T12:19:23.065Z,305
2016-06-14T12:20:22.974Z,305
2016-06-14T12:21:23.181Z,310
2016-06-14T12:22:23.199Z,320
2016-06-14T12:23:23.281Z,380
2016-06-14T12:24:23.345Z,425
2016-06-14T12:25:23.193Z,440
2016-06-14T12:26:23.103Z,430
2016-06-14T12:27:23.511Z,410
2016-06-14T12:28:23.499Z,390
2016-06-14T12:29:23.549Z,370
2016-06-14T12:30:23.645Z,360
2016-06-14T12:31:23.664Z,375
2016-06-14T12:32:23.792Z,385
2016-06-14T12:33:23.780Z,395
2016-06-14T12:34:23.815Z,405
2016-06-14T12:35:23.911Z,405
2016-06-14T12:36:23.930Z,405
2016-06-14T12:37:23.964Z,395
2016-06-14T12:38:24.031Z,400
2016-06-14T12:39:23.939Z,390
2016-06-14T12:40:24.114Z,380
2016-06-14T12:41:24.196Z,390
2016-06-14T12:42:24.245Z,395
2016-06-14T12:43:24.248Z,405
2016-06-14T12:44:24.330Z,425
2016-06-14T12:45:24.364Z,430
2016-06-14T12:46:24.289Z,445
2016-06-14T12:47:24.495Z,455
2016-06-14T12:48:24.358Z,470
2016-06-14T12:49:24.596Z,490
2016-06-14T12:50:24.660Z,510
2016-06-14T12:51:24.649Z,530
2016-06-14T12:52:24.729Z,540
2016-06-14T12:53:24.810Z,565
2016-06-14T12:54:24.797Z,595
2016-06-14T12:55:24.895Z,625
2016-06-14T12:56:24.914Z,645
2016-06-14T12:57:25.057Z,665
2016-06-14T12:58:25.014Z,685
2016-06-14T12:59:25.079Z,690
2016-06-14T13:00:25.145Z,725
2016-06-14T13:01:25.194Z,735
2016-06-14T13:02:25.526Z,745
2016-06-14T13:03:25.294Z,780
2016-06-14T13:04:25.188Z,880
2016-06-14T13:05:25.206Z,855
2016-06-14T13:06:25.428Z,835
2016-06-14T13:07:25.509Z,845
2016-06-14T13:08:25.529Z,975
2016-06-14T13:09:25.610Z,970
2016-06-14T13:10:25.613Z,990
2016-06-14T13:11:25.679Z,1065
2016-06-14T13:12:25.775Z,1440
2016-06-14T13:13:25.794Z,1230
2016-06-14T13:14:25.844Z,1265
2016-06-14T13:15:25.909Z,1045
2016-06-14T13:16:25.928Z,1590
2016-06-14T13:17:27.587Z,1545
2016-06-14T13:18:26.060Z,1580
2016-06-14T13:19:26.124Z,1415
2016-06-14T13:20:26.128Z,1750
2016-06-14T13:21:26.224Z,2145
2016-06-14T13:22:26.259Z,1225
2016-06-14T13:23:26.356Z,1405
2016-06-14T13:24:26.359Z,1110
2016-06-14T13:25:26.425Z,1490
2016-06-14T13:26:26.521Z,2020
2016-06-14T13:27:26.368Z,1695
2016-06-14T13:28:26.591Z,665
2016-06-14T13:29:26.671Z,645
2016-06-14T13:30:26.721Z,1840
2016-06-14T13:31:26.755Z,1170
2016-06-14T13:32:26.728Z,1615
2016-06-14T13:33:26.903Z,1705
2016-06-14T13:34:26.967Z,1585
2016-06-14T13:35:26.971Z,1465
2016-06-14T13:36:27.006Z,1765
2016-06-14T13:37:27.118Z,1790
2016-06-14T13:38:27.152Z,1555
2016-06-14T13:39:27.202Z,450
2016-06-14T13:40:27.268Z,345
2016-06-14T13:41:27.317Z,285
2016-06-14T13:42:27.352Z,265
2016-06-14T13:43:27.449Z,255
2016-06-14T13:44:27.483Z,240
2016-06-14T13:45:27.502Z,220
2016-06-14T13:46:27.583Z,210
2016-06-14T13:47:28.117Z,200
2016-06-14T13:48:27.699Z,190
2016-06-14T13:49:27.763Z,180
2016-06-14T13:50:27.783Z,175
2016-06-14T13:51:27.848Z,170
2016-06-14T13:52:27.930Z,170
2016-06-14T13:53:27.948Z,175
2016-06-14T13:54:27.982Z,185
2016-06-14T13:55:27.939Z,195
2016-06-14T13:56:28.098Z,210
2016-06-14T13:57:28.196Z,230
2016-06-14T13:58:28.229Z,260
2016-06-14T13:59:28.280Z,305
2016-06-14T14:00:28.297Z,355
2016-06-14T14:01:28.378Z,420
2016-06-14T14:02:28.273Z,485
2016-06-14T14:03:28.447Z,555
2016-06-14T14:04:28.388Z,690
2016-06-14T14:05:28.579Z,1540